sensor_id;sensor_type;location;lat;lon;timestamp;temperature;humidity
7461;DHT22;6757;52.258;12.840;2024-01-30T00:00:43;0.10;99.90
7461;DHT22;6757;52.258;12.840;2024-01-30T00:03:10;0.10;99.90
7461;DHT22;6757;52.258;12.840;2024-01-30T00:05:38;0.10;99.90
7461;DHT22;6757;52.258;12.840;2024-01-30T00:08:07;0.00;99.90
7461;DHT22;6757;52.258;12.840;2024-01-30T00:10:34;0.00;99.90
7461;DHT22;6757;52.258;12.840;2024-01-30T00:13:02;0.10;99.90
7461;DHT22;6757;52.258;12.840;2024-01-30T00:15:29;0.00;99.90
7461;DHT22;6757;52.258;12.840;2024-01-30T00:17:56;0.00;99.90
7461;DHT22;6757;52.258;12.840;2024-01-30T00:20:23;0.00;99.90
7461;DHT22;6757;52.258;12.840;2024-01-30T00:22:52;-0.10;99.90
7461;DHT22;6757;52.258;12.840;2024-01-30T00:25:20;-0.10;99.90
7461;DHT22;6757;52.258;12.840;2024-01-30T00:27:47;-0.20;99.90
7461;DHT22;6757;52.258;12.840;2024-01-30T00:30:15;-0.10;99.90
7461;DHT22;6757;52.258;12.840;2024-01-30T00:32:42;-0.10;99.90
7461;DHT22;6757;52.258;12.840;2024-01-30T00:35:09;-0.10;99.90
7461;DHT22;6757;52.258;12.840;2024-01-30T00:37:37;-0.10;99.90
7461;DHT22;6757;52.258;12.840;2024-01-30T00:40:06;-0.20;99.90
7461;DHT22;6757;52.258;12.840;2024-01-30T00:42:37;-0.20;99.90
7461;DHT22;6757;52.258;12.840;2024-01-30T00:45:05;-0.20;99.90
7461;DHT22;6757;52.258;12.840;2024-01-30T00:47:31;-0.20;99.90
7461;DHT22;6757;52.258;12.840;2024-01-30T00:49:59;-0.20;99.90
7461;DHT22;6757;52.258;12.840;2024-01-30T00:52:26;-0.20;99.90
7461;DHT22;6757;52.258;12.840;2024-01-30T00:54:54;1.10;99.90
7461;DHT22;6757;52.258;12.840;2024-01-30T00:57:21;-0.30;99.90
7461;DHT22;6757;52.258;12.840;2024-01-30T00:59:50;-0.30;99.90
7461;DHT22;6757;52.258;12.840;2024-01-30T01:02:19;-0.30;99.90
7461;DHT22;6757;52.258;12.840;2024-01-30T01:04:47;-0.30;99.90
7461;DHT22;6757;52.258;12.840;2024-01-30T01:07:13;1.00;99.90
7461;DHT22;6757;52.258;12.840;2024-01-30T01:09:40;-0.20;99.90
7461;DHT22;6757;52.258;12.840;2024-01-30T01:12:07;1.00;99.90
7461;DHT22;6757;52.258;12.840;2024-01-30T01:14:35;-0.30;99.90
7461;DHT22;6757;52.258;12.840;2024-01-30T01:17:04;-0.30;99.90
7461;DHT22;6757;52.258;12.840;2024-01-30T01:19:31;-0.30;99.90
7461;DHT22;6757;52.258;12.840;2024-01-30T01:21:59;-0.30;99.90
7461;DHT22;6757;52.258;12.840;2024-01-30T01:24:30;-0.30;99.90
7461;DHT22;6757;52.258;12.840;2024-01-30T01:26:59;-0.30;99.90
7461;DHT22;6757;52.258;12.840;2024-01-30T01:29:28;-0.30;99.90
7461;DHT22;6757;52.258;12.840;2024-01-30T01:31:55;-0.30;99.90
7461;DHT22;6757;52.258;12.840;2024-01-30T01:34:24;-0.60;99.90
7461;DHT22;6757;52.258;12.840;2024-01-30T01:36:52;-0.30;99.90
7461;DHT22;6757;52.258;12.840;2024-01-30T01:39:22;-0.30;99.90
7461;DHT22;6757;52.258;12.840;2024-01-30T01:41:50;-0.30;99.90
7461;DHT22;6757;52.258;12.840;2024-01-30T01:44:18;-0.30;99.90
7461;DHT22;6757;52.258;12.840;2024-01-30T01:46:46;-0.30;99.90
7461;DHT22;6757;52.258;12.840;2024-01-30T01:49:14;-0.30;99.90
7461;DHT22;6757;52.258;12.840;2024-01-30T01:51:44;-0.30;99.90
7461;DHT22;6757;52.258;12.840;2024-01-30T01:54:13;-0.30;99.90
7461;DHT22;6757;52.258;12.840;2024-01-30T01:56:42;-0.30;99.90
7461;DHT22;6757;52.258;12.840;2024-01-30T01:59:10;-0.30;99.90
7461;DHT22;6757;52.258;12.840;2024-01-30T02:01:38;-0.30;99.90
7461;DHT22;6757;52.258;12.840;2024-01-30T02:04:06;-0.40;99.90
7461;DHT22;6757;52.258;12.840;2024-01-30T02:06:34;-0.40;99.90
7461;DHT22;6757;52.258;12.840;2024-01-30T02:09:02;-0.40;99.90
7461;DHT22;6757;52.258;12.840;2024-01-30T02:11:30;-0.40;99.90
7461;DHT22;6757;52.258;12.840;2024-01-30T02:14:01;-0.40;99.90
7461;DHT22;6757;52.258;12.840;2024-01-30T02:16:29;-0.40;99.90
7461;DHT22;6757;52.258;12.840;2024-01-30T02:18:56;-0.40;99.90
7461;DHT22;6757;52.258;12.840;2024-01-30T02:21:26;-0.40;99.90
7461;DHT22;6757;52.258;12.840;2024-01-30T02:23:54;-0.40;99.90
7461;DHT22;6757;52.258;12.840;2024-01-30T02:26:21;-0.50;99.90
7461;DHT22;6757;52.258;12.840;2024-01-30T02:28:49;-0.40;99.90
7461;DHT22;6757;52.258;12.840;2024-01-30T02:31:16;-0.40;99.90
7461;DHT22;6757;52.258;12.840;2024-01-30T02:33:45;-0.50;99.90
7461;DHT22;6757;52.258;12.840;2024-01-30T02:36:14;-0.40;99.90
7461;DHT22;6757;52.258;12.840;2024-01-30T02:38:43;-0.50;99.90
7461;DHT22;6757;52.258;12.840;2024-01-30T02:41:13;-0.50;99.90
7461;DHT22;6757;52.258;12.840;2024-01-30T02:43:41;-0.50;99.90
7461;DHT22;6757;52.258;12.840;2024-01-30T02:46:08;-0.50;99.90
7461;DHT22;6757;52.258;12.840;2024-01-30T02:48:37;-0.50;99.90
7461;DHT22;6757;52.258;12.840;2024-01-30T02:51:04;-0.50;99.90
7461;DHT22;6757;52.258;12.840;2024-01-30T02:53:32;-0.50;99.90
7461;DHT22;6757;52.258;12.840;2024-01-30T02:56:02;-0.50;99.90
7461;DHT22;6757;52.258;12.840;2024-01-30T02:58:28;-0.50;99.90
7461;DHT22;6757;52.258;12.840;2024-01-30T03:00:56;-0.50;99.90
7461;DHT22;6757;52.258;12.840;2024-01-30T03:03:23;-0.60;99.90
7461;DHT22;6757;52.258;12.840;2024-01-30T03:05:49;-0.60;99.90
7461;DHT22;6757;52.258;12.840;2024-01-30T03:08:17;-0.60;99.90
7461;DHT22;6757;52.258;12.840;2024-01-30T03:10:44;-0.60;99.90
7461;DHT22;6757;52.258;12.840;2024-01-30T03:13:15;-0.60;99.90
7461;DHT22;6757;52.258;12.840;2024-01-30T03:15:42;-0.60;99.90
7461;DHT22;6757;52.258;12.840;2024-01-30T03:18:09;0.00;99.90
7461;DHT22;6757;52.258;12.840;2024-01-30T03:20:36;0.30;99.90
7461;DHT22;6757;52.258;12.840;2024-01-30T03:23:04;-0.60;99.90
7461;DHT22;6757;52.258;12.840;2024-01-30T03:25:31;-0.70;99.90
7461;DHT22;6757;52.258;12.840;2024-01-30T03:27:58;-0.50;99.90
7461;DHT22;6757;52.258;12.840;2024-01-30T03:30:26;-0.70;99.90
7461;DHT22;6757;52.258;12.840;2024-01-30T03:32:54;-0.70;99.90
7461;DHT22;6757;52.258;12.840;2024-01-30T03:35:21;-0.20;99.90
7461;DHT22;6757;52.258;12.840;2024-01-30T03:37:48;-0.70;99.90
7461;DHT22;6757;52.258;12.840;2024-01-30T03:40:15;-0.70;99.90
7461;DHT22;6757;52.258;12.840;2024-01-30T03:42:42;-0.70;99.90
7461;DHT22;6757;52.258;12.840;2024-01-30T03:45:10;-0.70;99.90
7461;DHT22;6757;52.258;12.840;2024-01-30T03:47:39;-0.70;99.90
7461;DHT22;6757;52.258;12.840;2024-01-30T03:50:07;-0.70;99.90
7461;DHT22;6757;52.258;12.840;2024-01-30T03:52:34;-0.70;99.90
7461;DHT22;6757;52.258;12.840;2024-01-30T03:55:02;-0.80;99.90
7461;DHT22;6757;52.258;12.840;2024-01-30T03:57:29;-0.70;99.90
7461;DHT22;6757;52.258;12.840;2024-01-30T03:59:58;-0.90;99.90
7461;DHT22;6757;52.258;12.840;2024-01-30T04:02:25;-0.80;99.90
7461;DHT22;6757;52.258;12.840;2024-01-30T04:04:54;-0.80;99.90
7461;DHT22;6757;52.258;12.840;2024-01-30T04:07:21;-0.80;99.90
7461;DHT22;6757;52.258;12.840;2024-01-30T04:09:49;-0.80;99.90
7461;DHT22;6757;52.258;12.840;2024-01-30T04:12:16;-0.80;99.90
7461;DHT22;6757;52.258;12.840;2024-01-30T04:14:43;-0.80;99.90
7461;DHT22;6757;52.258;12.840;2024-01-30T04:17:10;-0.80;99.90
7461;DHT22;6757;52.258;12.840;2024-01-30T04:19:37;-0.80;99.90
7461;DHT22;6757;52.258;12.840;2024-01-30T04:22:06;-0.70;99.90
7461;DHT22;6757;52.258;12.840;2024-01-30T04:24:35;-0.70;99.90
7461;DHT22;6757;52.258;12.840;2024-01-30T04:27:03;-0.70;99.90
7461;DHT22;6757;52.258;12.840;2024-01-30T04:29:31;-0.70;99.90
7461;DHT22;6757;52.258;12.840;2024-01-30T04:31:59;-0.80;99.90
7461;DHT22;6757;52.258;12.840;2024-01-30T04:34:27;-0.70;99.90
7461;DHT22;6757;52.258;12.840;2024-01-30T04:36:54;-0.70;99.90
7461;DHT22;6757;52.258;12.840;2024-01-30T04:39:24;-0.70;99.90
7461;DHT22;6757;52.258;12.840;2024-01-30T04:41:50;-0.70;99.90
7461;DHT22;6757;52.258;12.840;2024-01-30T04:44:19;-0.60;99.90
7461;DHT22;6757;52.258;12.840;2024-01-30T04:46:46;-0.60;99.90
7461;DHT22;6757;52.258;12.840;2024-01-30T04:49:14;-0.60;99.90
7461;DHT22;6757;52.258;12.840;2024-01-30T04:51:40;-0.60;99.90
7461;DHT22;6757;52.258;12.840;2024-01-30T04:54:08;-0.60;99.90
7461;DHT22;6757;52.258;12.840;2024-01-30T04:56:36;-0.60;99.90
7461;DHT22;6757;52.258;12.840;2024-01-30T04:59:04;-0.60;99.90
7461;DHT22;6757;52.258;12.840;2024-01-30T05:01:33;-0.70;99.90
7461;DHT22;6757;52.258;12.840;2024-01-30T05:04:00;-0.70;99.90
7461;DHT22;6757;52.258;12.840;2024-01-30T05:06:28;-0.70;99.90
7461;DHT22;6757;52.258;12.840;2024-01-30T05:08:56;-0.70;99.90
7461;DHT22;6757;52.258;12.840;2024-01-30T05:11:24;-0.70;99.90
7461;DHT22;6757;52.258;12.840;2024-01-30T05:13:53;-0.70;99.90
7461;DHT22;6757;52.258;12.840;2024-01-30T05:16:21;-0.70;99.90
7461;DHT22;6757;52.258;12.840;2024-01-30T05:21:15;-0.70;99.90
7461;DHT22;6757;52.258;12.840;2024-01-30T05:23:42;-0.70;99.90
7461;DHT22;6757;52.258;12.840;2024-01-30T05:26:09;-0.70;99.90
7461;DHT22;6757;52.258;12.840;2024-01-30T05:28:36;-0.70;99.90
7461;DHT22;6757;52.258;12.840;2024-01-30T05:31:04;-0.70;99.90
7461;DHT22;6757;52.258;12.840;2024-01-30T05:33:32;-0.70;99.90
7461;DHT22;6757;52.258;12.840;2024-01-30T05:35:59;-0.70;99.90
7461;DHT22;6757;52.258;12.840;2024-01-30T05:38:26;-0.70;99.90
7461;DHT22;6757;52.258;12.840;2024-01-30T05:40:53;-0.70;99.90
7461;DHT22;6757;52.258;12.840;2024-01-30T05:43:19;-0.60;99.90
7461;DHT22;6757;52.258;12.840;2024-01-30T05:45:46;-0.60;99.90
7461;DHT22;6757;52.258;12.840;2024-01-30T05:48:15;-0.60;99.90
7461;DHT22;6757;52.258;12.840;2024-01-30T05:50:42;-0.50;99.90
7461;DHT22;6757;52.258;12.840;2024-01-30T05:53:11;-0.50;99.90
7461;DHT22;6757;52.258;12.840;2024-01-30T05:55:38;-0.40;99.90
7461;DHT22;6757;52.258;12.840;2024-01-30T05:58:04;-0.40;99.90
7461;DHT22;6757;52.258;12.840;2024-01-30T06:00:32;-0.30;99.90
7461;DHT22;6757;52.258;12.840;2024-01-30T06:02:59;-0.20;99.90
7461;DHT22;6757;52.258;12.840;2024-01-30T06:05:27;-0.20;99.90
7461;DHT22;6757;52.258;12.840;2024-01-30T06:07:55;-0.10;99.90
7461;DHT22;6757;52.258;12.840;2024-01-30T06:10:21;-0.10;99.90
7461;DHT22;6757;52.258;12.840;2024-01-30T06:12:48;-0.10;99.90
7461;DHT22;6757;52.258;12.840;2024-01-30T06:15:15;-0.10;99.90
7461;DHT22;6757;52.258;12.840;2024-01-30T06:17:42;-0.20;99.90
7461;DHT22;6757;52.258;12.840;2024-01-30T06:20:09;-0.20;99.90
7461;DHT22;6757;52.258;12.840;2024-01-30T06:22:38;-0.20;99.90
7461;DHT22;6757;52.258;12.840;2024-01-30T06:25:06;-0.10;99.90
7461;DHT22;6757;52.258;12.840;2024-01-30T06:27:33;-0.10;99.90
7461;DHT22;6757;52.258;12.840;2024-01-30T06:30:01;-0.10;99.90
7461;DHT22;6757;52.258;12.840;2024-01-30T06:32:28;0.00;99.90
7461;DHT22;6757;52.258;12.840;2024-01-30T06:34:59;0.00;99.90
7461;DHT22;6757;52.258;12.840;2024-01-30T06:37:26;-0.10;99.90
7461;DHT22;6757;52.258;12.840;2024-01-30T06:39:55;0.00;99.90
7461;DHT22;6757;52.258;12.840;2024-01-30T06:42:24;-0.30;99.90
7461;DHT22;6757;52.258;12.840;2024-01-30T06:44:50;0.00;99.90
7461;DHT22;6757;52.258;12.840;2024-01-30T06:47:18;-0.10;99.90
7461;DHT22;6757;52.258;12.840;2024-01-30T06:49:45;-0.10;99.90
7461;DHT22;6757;52.258;12.840;2024-01-30T06:52:13;0.00;99.90
7461;DHT22;6757;52.258;12.840;2024-01-30T06:54:40;0.00;99.90
7461;DHT22;6757;52.258;12.840;2024-01-30T06:57:10;-0.10;99.90
7461;DHT22;6757;52.258;12.840;2024-01-30T06:59:37;-0.10;99.90
7461;DHT22;6757;52.258;12.840;2024-01-30T07:02:08;-0.10;99.90
7461;DHT22;6757;52.258;12.840;2024-01-30T07:04:35;-0.10;99.90
7461;DHT22;6757;52.258;12.840;2024-01-30T07:07:04;-0.10;99.90
7461;DHT22;6757;52.258;12.840;2024-01-30T07:09:37;0.00;99.90
7461;DHT22;6757;52.258;12.840;2024-01-30T07:12:05;0.00;99.90
7461;DHT22;6757;52.258;12.840;2024-01-30T07:14:35;0.00;99.90
7461;DHT22;6757;52.258;12.840;2024-01-30T07:17:03;0.10;99.90
7461;DHT22;6757;52.258;12.840;2024-01-30T07:19:30;0.10;99.90
7461;DHT22;6757;52.258;12.840;2024-01-30T07:21:57;0.10;99.90
7461;DHT22;6757;52.258;12.840;2024-01-30T07:24:24;0.20;99.90
7461;DHT22;6757;52.258;12.840;2024-01-30T07:26:52;0.20;99.90
7461;DHT22;6757;52.258;12.840;2024-01-30T07:29:19;0.20;99.90
7461;DHT22;6757;52.258;12.840;2024-01-30T07:31:49;0.30;99.90
7461;DHT22;6757;52.258;12.840;2024-01-30T07:34:16;0.30;99.90
7461;DHT22;6757;52.258;12.840;2024-01-30T07:36:43;0.30;99.90
7461;DHT22;6757;52.258;12.840;2024-01-30T07:39:15;0.30;99.90
7461;DHT22;6757;52.258;12.840;2024-01-30T07:41:43;0.30;99.90
7461;DHT22;6757;52.258;12.840;2024-01-30T07:44:11;0.40;99.90
7461;DHT22;6757;52.258;12.840;2024-01-30T07:46:37;0.40;99.90
7461;DHT22;6757;52.258;12.840;2024-01-30T07:49:05;0.40;99.90
7461;DHT22;6757;52.258;12.840;2024-01-30T07:51:32;0.40;99.90
7461;DHT22;6757;52.258;12.840;2024-01-30T07:53:59;0.40;99.90
7461;DHT22;6757;52.258;12.840;2024-01-30T07:56:26;0.40;99.90
7461;DHT22;6757;52.258;12.840;2024-01-30T07:58:55;0.40;99.90
7461;DHT22;6757;52.258;12.840;2024-01-30T08:01:22;0.40;99.90
7461;DHT22;6757;52.258;12.840;2024-01-30T08:03:48;0.50;99.90
7461;DHT22;6757;52.258;12.840;2024-01-30T08:06:17;0.40;99.90
7461;DHT22;6757;52.258;12.840;2024-01-30T08:08:45;0.60;99.90
7461;DHT22;6757;52.258;12.840;2024-01-30T08:11:12;0.60;99.90
7461;DHT22;6757;52.258;12.840;2024-01-30T08:13:40;0.70;99.90
7461;DHT22;6757;52.258;12.840;2024-01-30T08:16:06;0.80;99.90
7461;DHT22;6757;52.258;12.840;2024-01-30T08:18:33;0.90;99.90
7461;DHT22;6757;52.258;12.840;2024-01-30T08:21:01;1.00;99.90
7461;DHT22;6757;52.258;12.840;2024-01-30T08:23:29;1.00;99.90
7461;DHT22;6757;52.258;12.840;2024-01-30T08:25:57;1.10;99.90
7461;DHT22;6757;52.258;12.840;2024-01-30T08:28:24;1.20;99.90
7461;DHT22;6757;52.258;12.840;2024-01-30T08:30:53;1.30;99.90
7461;DHT22;6757;52.258;12.840;2024-01-30T08:33:20;1.40;99.90
7461;DHT22;6757;52.258;12.840;2024-01-30T08:35:48;1.40;99.90
7461;DHT22;6757;52.258;12.840;2024-01-30T08:38:16;1.40;99.90
7461;DHT22;6757;52.258;12.840;2024-01-30T08:40:46;1.50;99.90
7461;DHT22;6757;52.258;12.840;2024-01-30T08:43:14;1.60;99.90
7461;DHT22;6757;52.258;12.840;2024-01-30T08:45:41;1.60;99.90
7461;DHT22;6757;52.258;12.840;2024-01-30T08:48:08;1.60;99.90
7461;DHT22;6757;52.258;12.840;2024-01-30T08:53:03;1.70;99.90
7461;DHT22;6757;52.258;12.840;2024-01-30T08:55:30;1.80;99.90
7461;DHT22;6757;52.258;12.840;2024-01-30T08:57:58;1.90;99.90
7461;DHT22;6757;52.258;12.840;2024-01-30T09:02:53;2.10;99.90
7461;DHT22;6757;52.258;12.840;2024-01-30T09:05:20;2.10;99.90
7461;DHT22;6757;52.258;12.840;2024-01-30T09:07:49;2.20;99.90
7461;DHT22;6757;52.258;12.840;2024-01-30T09:10:17;2.40;99.90
7461;DHT22;6757;52.258;12.840;2024-01-30T09:12:46;2.50;99.90
7461;DHT22;6757;52.258;12.840;2024-01-30T09:15:16;2.60;99.90
7461;DHT22;6757;52.258;12.840;2024-01-30T09:17:43;2.80;99.90
7461;DHT22;6757;52.258;12.840;2024-01-30T09:20:10;2.90;99.90
7461;DHT22;6757;52.258;12.840;2024-01-30T09:22:38;3.00;99.90
7461;DHT22;6757;52.258;12.840;2024-01-30T09:25:04;3.10;99.90
7461;DHT22;6757;52.258;12.840;2024-01-30T09:27:33;3.10;99.90
7461;DHT22;6757;52.258;12.840;2024-01-30T09:30:00;3.30;99.90
7461;DHT22;6757;52.258;12.840;2024-01-30T09:32:30;3.40;99.90
7461;DHT22;6757;52.258;12.840;2024-01-30T09:34:56;3.50;99.90
7461;DHT22;6757;52.258;12.840;2024-01-30T09:37:24;3.70;99.90
7461;DHT22;6757;52.258;12.840;2024-01-30T09:39:51;3.70;99.90
7461;DHT22;6757;52.258;12.840;2024-01-30T09:42:26;3.90;99.90
7461;DHT22;6757;52.258;12.840;2024-01-30T09:44:56;4.10;99.90
7461;DHT22;6757;52.258;12.840;2024-01-30T09:47:23;4.20;99.90
7461;DHT22;6757;52.258;12.840;2024-01-30T09:49:52;4.20;99.90
7461;DHT22;6757;52.258;12.840;2024-01-30T09:52:19;4.40;99.90
7461;DHT22;6757;52.258;12.840;2024-01-30T09:54:45;4.50;99.90
7461;DHT22;6757;52.258;12.840;2024-01-30T09:57:13;5.80;99.90
7461;DHT22;6757;52.258;12.840;2024-01-30T09:59:41;4.70;99.90
7461;DHT22;6757;52.258;12.840;2024-01-30T10:02:10;4.80;99.90
7461;DHT22;6757;52.258;12.840;2024-01-30T10:04:37;4.80;99.90
7461;DHT22;6757;52.258;12.840;2024-01-30T10:07:06;5.10;99.90
7461;DHT22;6757;52.258;12.840;2024-01-30T10:09:34;5.10;99.90
7461;DHT22;6757;52.258;12.840;2024-01-30T10:12:01;5.20;99.90
7461;DHT22;6757;52.258;12.840;2024-01-30T10:14:30;5.30;99.90
7461;DHT22;6757;52.258;12.840;2024-01-30T10:16:57;5.40;99.90
7461;DHT22;6757;52.258;12.840;2024-01-30T10:19:25;5.40;99.90
7461;DHT22;6757;52.258;12.840;2024-01-30T10:21:52;5.40;99.90
7461;DHT22;6757;52.258;12.840;2024-01-30T10:24:25;5.50;99.90
7461;DHT22;6757;52.258;12.840;2024-01-30T10:26:54;5.60;99.90
7461;DHT22;6757;52.258;12.840;2024-01-30T10:29:24;5.70;99.90
7461;DHT22;6757;52.258;12.840;2024-01-30T10:31:58;5.70;99.90
7461;DHT22;6757;52.258;12.840;2024-01-30T10:34:26;5.70;99.90
7461;DHT22;6757;52.258;12.840;2024-01-30T10:37:00;5.90;99.90
7461;DHT22;6757;52.258;12.840;2024-01-30T10:39:39;5.90;99.90
7461;DHT22;6757;52.258;12.840;2024-01-30T10:42:14;5.90;99.90
7461;DHT22;6757;52.258;12.840;2024-01-30T10:44:52;6.20;99.90
7461;DHT22;6757;52.258;12.840;2024-01-30T10:47:26;6.30;99.90
7461;DHT22;6757;52.258;12.840;2024-01-30T10:52:24;7.00;99.90
7461;DHT22;6757;52.258;12.840;2024-01-30T10:54:54;7.00;99.90
7461;DHT22;6757;52.258;12.840;2024-01-30T10:57:23;7.20;99.90
7461;DHT22;6757;52.258;12.840;2024-01-30T10:59:52;7.40;99.90
7461;DHT22;6757;52.258;12.840;2024-01-30T11:02:21;7.40;99.90
7461;DHT22;6757;52.258;12.840;2024-01-30T11:04:49;7.80;99.90
7461;DHT22;6757;52.258;12.840;2024-01-30T11:07:17;7.80;99.90
7461;DHT22;6757;52.258;12.840;2024-01-30T11:09:49;7.90;99.90
7461;DHT22;6757;52.258;12.840;2024-01-30T11:12:21;7.90;99.90
7461;DHT22;6757;52.258;12.840;2024-01-30T11:14:50;8.10;99.90
7461;DHT22;6757;52.258;12.840;2024-01-30T11:17:17;8.40;99.90
7461;DHT22;6757;52.258;12.840;2024-01-30T11:19:46;8.60;99.90
7461;DHT22;6757;52.258;12.840;2024-01-30T11:22:14;8.50;99.90
7461;DHT22;6757;52.258;12.840;2024-01-30T11:24:42;8.40;99.90
7461;DHT22;6757;52.258;12.840;2024-01-30T11:29:40;8.20;99.90
7461;DHT22;6757;52.258;12.840;2024-01-30T11:32:06;8.10;99.90
7461;DHT22;6757;52.258;12.840;2024-01-30T11:34:34;8.10;99.90
7461;DHT22;6757;52.258;12.840;2024-01-30T11:37:05;8.10;99.90
7461;DHT22;6757;52.258;12.840;2024-01-30T11:39:39;8.10;99.90
7461;DHT22;6757;52.258;12.840;2024-01-30T11:42:07;8.20;99.90
7461;DHT22;6757;52.258;12.840;2024-01-30T11:44:35;8.30;99.90
7461;DHT22;6757;52.258;12.840;2024-01-30T11:47:04;8.20;99.90
7461;DHT22;6757;52.258;12.840;2024-01-30T11:51:58;8.30;99.90
7461;DHT22;6757;52.258;12.840;2024-01-30T11:54:25;8.30;99.90
7461;DHT22;6757;52.258;12.840;2024-01-30T11:56:53;8.30;99.90
7461;DHT22;6757;52.258;12.840;2024-01-30T11:59:20;8.30;99.90
7461;DHT22;6757;52.258;12.840;2024-01-30T12:01:48;8.30;99.90
7461;DHT22;6757;52.258;12.840;2024-01-30T12:04:17;8.30;99.90
7461;DHT22;6757;52.258;12.840;2024-01-30T12:06:45;8.30;99.90
7461;DHT22;6757;52.258;12.840;2024-01-30T12:11:45;8.40;99.90
7461;DHT22;6757;52.258;12.840;2024-01-30T12:14:12;8.40;99.90
7461;DHT22;6757;52.258;12.840;2024-01-30T12:16:40;8.60;99.90
7461;DHT22;6757;52.258;12.840;2024-01-30T12:19:08;8.90;99.90
7461;DHT22;6757;52.258;12.840;2024-01-30T12:21:38;9.10;99.90
7461;DHT22;6757;52.258;12.840;2024-01-30T12:24:05;9.20;99.90
7461;DHT22;6757;52.258;12.840;2024-01-30T12:26:34;9.30;99.90
7461;DHT22;6757;52.258;12.840;2024-01-30T12:29:04;9.30;99.90
7461;DHT22;6757;52.258;12.840;2024-01-30T12:31:32;9.20;99.90
7461;DHT22;6757;52.258;12.840;2024-01-30T12:33:59;9.20;99.90
7461;DHT22;6757;52.258;12.840;2024-01-30T12:36:29;9.10;99.90
7461;DHT22;6757;52.258;12.840;2024-01-30T12:38:58;9.20;99.90
7461;DHT22;6757;52.258;12.840;2024-01-30T12:41:26;9.10;99.90
7461;DHT22;6757;52.258;12.840;2024-01-30T12:43:56;9.10;99.90
7461;DHT22;6757;52.258;12.840;2024-01-30T12:46:27;9.10;99.90
7461;DHT22;6757;52.258;12.840;2024-01-30T12:51:26;9.10;99.90
7461;DHT22;6757;52.258;12.840;2024-01-30T12:53:53;9.10;99.90
7461;DHT22;6757;52.258;12.840;2024-01-30T12:56:22;9.20;99.90
7461;DHT22;6757;52.258;12.840;2024-01-30T12:58:48;9.20;99.90
7461;DHT22;6757;52.258;12.840;2024-01-30T13:01:17;9.20;99.90
7461;DHT22;6757;52.258;12.840;2024-01-30T13:03:45;9.30;99.90
7461;DHT22;6757;52.258;12.840;2024-01-30T13:08:41;9.40;99.90
7461;DHT22;6757;52.258;12.840;2024-01-30T13:11:07;9.50;99.90
7461;DHT22;6757;52.258;12.840;2024-01-30T13:13:36;9.50;99.90
7461;DHT22;6757;52.258;12.840;2024-01-30T13:16:04;9.60;99.90
7461;DHT22;6757;52.258;12.840;2024-01-30T13:18:32;9.60;99.90
7461;DHT22;6757;52.258;12.840;2024-01-30T13:20:59;9.50;99.90
7461;DHT22;6757;52.258;12.840;2024-01-30T13:23:26;9.50;99.90
7461;DHT22;6757;52.258;12.840;2024-01-30T13:25:53;9.50;99.90
7461;DHT22;6757;52.258;12.840;2024-01-30T13:28:23;9.50;99.90
7461;DHT22;6757;52.258;12.840;2024-01-30T13:30:55;9.50;99.90
7461;DHT22;6757;52.258;12.840;2024-01-30T13:33:22;9.50;99.90
7461;DHT22;6757;52.258;12.840;2024-01-30T13:35:49;9.50;99.90
7461;DHT22;6757;52.258;12.840;2024-01-30T13:38:17;9.50;99.90
7461;DHT22;6757;52.258;12.840;2024-01-30T13:40:44;9.50;99.90
7461;DHT22;6757;52.258;12.840;2024-01-30T13:43:12;9.50;99.90
7461;DHT22;6757;52.258;12.840;2024-01-30T13:45:40;10.00;99.90
7461;DHT22;6757;52.258;12.840;2024-01-30T13:48:09;9.50;99.90
7461;DHT22;6757;52.258;12.840;2024-01-30T13:50:37;9.50;99.90
7461;DHT22;6757;52.258;12.840;2024-01-30T13:53:04;9.60;99.90
7461;DHT22;6757;52.258;12.840;2024-01-30T13:55:33;9.50;99.90
7461;DHT22;6757;52.258;12.840;2024-01-30T13:58:01;9.50;99.90
7461;DHT22;6757;52.258;12.840;2024-01-30T14:00:28;9.50;99.90
7461;DHT22;6757;52.258;12.840;2024-01-30T14:02:55;10.20;99.90
7461;DHT22;6757;52.258;12.840;2024-01-30T14:05:25;10.20;99.90
7461;DHT22;6757;52.258;12.840;2024-01-30T14:07:53;10.50;99.90
7461;DHT22;6757;52.258;12.840;2024-01-30T14:10:21;10.80;99.90
7461;DHT22;6757;52.258;12.840;2024-01-30T14:12:47;11.30;99.90
7461;DHT22;6757;52.258;12.840;2024-01-30T14:15:14;11.30;99.90
7461;DHT22;6757;52.258;12.840;2024-01-30T14:17:43;11.50;99.90
7461;DHT22;6757;52.258;12.840;2024-01-30T14:20:11;11.70;99.90
7461;DHT22;6757;52.258;12.840;2024-01-30T14:22:43;11.80;99.90
7461;DHT22;6757;52.258;12.840;2024-01-30T14:25:10;12.00;99.90
7461;DHT22;6757;52.258;12.840;2024-01-30T14:27:38;12.00;99.90
7461;DHT22;6757;52.258;12.840;2024-01-30T14:30:06;12.20;99.90
7461;DHT22;6757;52.258;12.840;2024-01-30T14:32:38;12.20;99.90
7461;DHT22;6757;52.258;12.840;2024-01-30T14:35:08;12.00;99.90
7461;DHT22;6757;52.258;12.840;2024-01-30T14:37:35;11.50;99.90
7461;DHT22;6757;52.258;12.840;2024-01-30T14:40:06;11.50;99.90
7461;DHT22;6757;52.258;12.840;2024-01-30T14:42:33;11.20;99.90
7461;DHT22;6757;52.258;12.840;2024-01-30T14:45:01;11.10;99.90
7461;DHT22;6757;52.258;12.840;2024-01-30T14:47:28;11.10;99.90
7461;DHT22;6757;52.258;12.840;2024-01-30T14:49:56;11.20;99.90
7461;DHT22;6757;52.258;12.840;2024-01-30T14:52:23;11.30;99.90
7461;DHT22;6757;52.258;12.840;2024-01-30T14:54:50;11.50;99.90
7461;DHT22;6757;52.258;12.840;2024-01-30T14:57:19;11.40;99.90
7461;DHT22;6757;52.258;12.840;2024-01-30T14:59:45;11.40;99.90
7461;DHT22;6757;52.258;12.840;2024-01-30T15:02:13;11.40;99.90
7461;DHT22;6757;52.258;12.840;2024-01-30T15:04:41;11.40;99.90
7461;DHT22;6757;52.258;12.840;2024-01-30T15:07:08;11.40;99.90
7461;DHT22;6757;52.258;12.840;2024-01-30T15:09:36;11.40;99.90
7461;DHT22;6757;52.258;12.840;2024-01-30T15:12:04;11.30;99.90
7461;DHT22;6757;52.258;12.840;2024-01-30T15:14:32;11.50;99.90
7461;DHT22;6757;52.258;12.840;2024-01-30T15:16:59;11.50;99.90
7461;DHT22;6757;52.258;12.840;2024-01-30T15:19:26;11.50;99.90
7461;DHT22;6757;52.258;12.840;2024-01-30T15:21:53;11.30;99.90
7461;DHT22;6757;52.258;12.840;2024-01-30T15:24:26;10.80;99.90
7461;DHT22;6757;52.258;12.840;2024-01-30T15:26:52;10.80;99.90
7461;DHT22;6757;52.258;12.840;2024-01-30T15:29:20;10.50;99.90
7461;DHT22;6757;52.258;12.840;2024-01-30T15:31:51;10.50;99.90
7461;DHT22;6757;52.258;12.840;2024-01-30T15:34:17;10.30;99.90
7461;DHT22;6757;52.258;12.840;2024-01-30T15:36:46;10.20;99.90
7461;DHT22;6757;52.258;12.840;2024-01-30T15:39:14;10.10;99.90
7461;DHT22;6757;52.258;12.840;2024-01-30T15:41:42;10.00;99.90
7461;DHT22;6757;52.258;12.840;2024-01-30T15:44:09;9.70;99.90
7461;DHT22;6757;52.258;12.840;2024-01-30T15:46:37;9.70;99.90
7461;DHT22;6757;52.258;12.840;2024-01-30T15:49:05;9.50;99.90
7461;DHT22;6757;52.258;12.840;2024-01-30T15:51:33;9.40;99.90
7461;DHT22;6757;52.258;12.840;2024-01-30T15:54:00;9.20;99.90
7461;DHT22;6757;52.258;12.840;2024-01-30T15:58:55;8.80;99.90
7461;DHT22;6757;52.258;12.840;2024-01-30T16:01:22;8.70;99.90
7461;DHT22;6757;52.258;12.840;2024-01-30T16:06:18;8.30;99.90
7461;DHT22;6757;52.258;12.840;2024-01-30T16:08:47;8.40;99.90
7461;DHT22;6757;52.258;12.840;2024-01-30T16:11:16;8.00;99.90
7461;DHT22;6757;52.258;12.840;2024-01-30T16:13:43;7.90;99.90
7461;DHT22;6757;52.258;12.840;2024-01-30T16:16:11;7.80;99.90
7461;DHT22;6757;52.258;12.840;2024-01-30T16:18:38;7.80;99.90
7461;DHT22;6757;52.258;12.840;2024-01-30T16:21:05;7.50;99.90
7461;DHT22;6757;52.258;12.840;2024-01-30T16:23:39;7.40;99.90
7461;DHT22;6757;52.258;12.840;2024-01-30T16:26:06;7.40;99.90